createdAt,value
2023-03-28T00:01:03.531Z,-0.50
2023-03-28T00:03:36.087Z,-0.60
2023-03-28T00:06:09.440Z,-0.70
2023-03-28T00:08:39.208Z,-0.70
2023-03-28T00:11:21.549Z,-0.70
2023-03-28T00:13:57.884Z,-0.80
2023-03-28T00:16:26.621Z,-0.80
2023-03-28T00:18:53.965Z,-0.80
2023-03-28T00:21:27.531Z,-0.80
2023-03-28T00:24:01.725Z,-0.70
2023-03-28T00:26:32.416Z,-0.80
2023-03-28T00:29:03.862Z,-0.80
2023-03-28T00:31:32.338Z,-0.90
2023-03-28T00:33:59.958Z,-0.90
2023-03-28T00:36:29.270Z,-0.90
2023-03-28T00:38:57.617Z,-0.90
2023-03-28T00:41:30.949Z,-0.80
2023-03-28T00:43:59.156Z,-0.90
2023-03-28T00:46:32.257Z,-0.80
2023-03-28T00:49:06.975Z,-0.90
2023-03-28T00:51:38.592Z,-0.90
2023-03-28T00:54:12.956Z,-0.90
2023-03-28T00:56:43.377Z,-1.00
2023-03-28T00:59:14.683Z,-1.00
2023-03-28T01:01:41.916Z,-1.00
2023-03-28T01:04:10.039Z,-1.00
2023-03-28T01:06:48.816Z,-1.10
2023-03-28T01:09:21.020Z,-1.10
2023-03-28T01:11:53.878Z,-1.10
2023-03-28T01:14:23.750Z,-1.10
2023-03-28T01:16:56.171Z,-1.20
2023-03-28T01:20:05.851Z,-1.20
2023-03-28T01:22:56.893Z,-1.20
2023-03-28T01:26:00.386Z,-1.30
2023-03-28T01:29:08.816Z,-1.40
2023-03-28T01:32:21.034Z,-1.50
2023-03-28T01:35:39.028Z,-1.60
2023-03-28T01:38:21.622Z,-1.70
2023-03-28T01:41:14.771Z,-1.70
2023-03-28T01:44:28.195Z,-1.70
2023-03-28T01:47:06.492Z,-1.80
2023-03-28T01:49:39.422Z,-1.90
2023-03-28T01:52:22.759Z,-1.90
2023-03-28T01:55:01.864Z,-2.00
2023-03-28T01:57:32.177Z,-2.00
2023-03-28T02:00:01.979Z,-2.00
2023-03-28T02:02:37.136Z,-2.00
2023-03-28T02:05:29.529Z,-2.00
2023-03-28T02:08:00.178Z,-2.00
2023-03-28T02:10:42.356Z,-2.10
2023-03-28T02:13:35.178Z,-2.10
2023-03-28T02:16:24.132Z,-2.10
2023-03-28T02:19:12.433Z,-2.10
2023-03-28T02:22:17.950Z,-2.20
2023-03-28T02:25:02.234Z,-2.20
2023-03-28T02:27:40.987Z,-2.20
2023-03-28T02:30:28.995Z,-2.30
2023-03-28T02:33:01.093Z,-2.30
2023-03-28T02:35:53.080Z,-2.30
2023-03-28T02:38:59.025Z,-2.30
2023-03-28T02:41:50.369Z,-2.30
2023-03-28T02:44:27.302Z,-2.30
2023-03-28T02:47:36.065Z,-2.40
2023-03-28T02:50:17.338Z,-2.20
2023-03-28T02:52:59.634Z,-1.80
2023-03-28T02:55:56.737Z,-1.80
2023-03-28T02:58:49.286Z,-1.90
2023-03-28T03:01:16.736Z,-2.00
2023-03-28T03:03:44.081Z,-2.10
2023-03-28T03:06:12.526Z,-2.10
2023-03-28T03:08:39.767Z,-1.80
2023-03-28T03:11:07.111Z,-1.70
2023-03-28T03:13:35.223Z,-1.60
2023-03-28T03:16:04.203Z,-1.60
2023-03-28T03:18:32.397Z,-1.50
2023-03-28T03:21:01.648Z,-1.50
2023-03-28T03:23:29.400Z,-1.30
2023-03-28T03:25:59.147Z,-1.20
2023-03-28T03:28:33.270Z,-1.20
2023-03-28T03:31:02.997Z,-1.10
2023-03-28T03:33:37.665Z,-1.00
2023-03-28T03:36:07.241Z,-1.00
2023-03-28T03:38:35.082Z,-1.00
2023-03-28T03:41:03.315Z,-1.00
2023-03-28T03:43:31.137Z,-1.10
2023-03-28T03:46:00.185Z,-1.10
2023-03-28T03:48:28.360Z,-1.20
2023-03-28T03:50:58.839Z,-1.20
2023-03-28T03:53:26.531Z,-1.20
2023-03-28T03:56:06.253Z,-1.30
2023-03-28T03:58:52.274Z,-1.30
2023-03-28T04:01:25.694Z,-1.40
2023-03-28T04:03:54.487Z,-1.50
2023-03-28T04:06:29.493Z,-1.60
2023-03-28T04:08:57.073Z,-1.70
2023-03-28T04:11:43.004Z,-1.80
2023-03-28T04:14:10.832Z,-1.90
2023-03-28T04:16:40.282Z,-2.00
2023-03-28T04:19:10.763Z,-2.00
2023-03-28T04:21:42.729Z,-2.10
2023-03-28T04:24:15.458Z,-2.10
2023-03-28T04:26:55.717Z,-2.20
2023-03-28T04:29:30.476Z,-2.20
2023-03-28T04:32:16.618Z,-2.10
2023-03-28T04:35:06.440Z,-2.00
2023-03-28T04:37:37.531Z,-2.00
2023-03-28T04:40:10.575Z,-2.10
2023-03-28T04:42:47.808Z,-2.10
2023-03-28T04:45:26.652Z,-2.10
2023-03-28T04:47:55.469Z,-2.10
2023-03-28T04:50:23.462Z,-1.90
2023-03-28T04:52:50.732Z,-2.00
2023-03-28T04:55:18.046Z,-2.00
2023-03-28T04:57:47.587Z,-2.00
2023-03-28T05:00:18.265Z,-2.00
2023-03-28T05:03:04.980Z,-1.90
2023-03-28T05:05:38.048Z,-2.00
2023-03-28T05:08:08.853Z,-1.90
2023-03-28T05:10:36.836Z,-1.90
2023-03-28T05:13:07.709Z,-1.90
2023-03-28T05:15:43.295Z,-1.90
2023-03-28T05:18:25.193Z,-2.00
2023-03-28T05:20:53.306Z,-1.90
2023-03-28T05:23:20.800Z,-1.80
2023-03-28T05:25:52.582Z,-1.70
2023-03-28T05:28:20.705Z,-1.70
2023-03-28T05:30:51.530Z,-1.70
2023-03-28T05:33:18.994Z,-1.60
2023-03-28T05:35:48.128Z,-1.70
2023-03-28T05:38:16.724Z,-1.60
2023-03-28T05:40:46.692Z,-1.40
2023-03-28T05:43:13.950Z,-1.30
2023-03-28T05:45:41.771Z,-1.30
2023-03-28T05:48:14.304Z,-1.30
2023-03-28T05:50:42.462Z,-1.20
2023-03-28T05:53:09.685Z,-1.10
2023-03-28T05:55:37.212Z,-1.00
2023-03-28T05:58:06.209Z,-0.70
2023-03-28T06:00:37.725Z,-0.50
2023-03-28T06:03:07.361Z,-0.20
2023-03-28T06:05:38.057Z,-0.10
2023-03-28T06:08:12.294Z,-0.10
2023-03-28T06:10:39.873Z,-0.10
2023-03-28T06:13:17.219Z,-0.10
2023-03-28T06:15:47.091Z,0.00
2023-03-28T06:18:14.531Z,0.30
2023-03-28T06:20:46.783Z,0.50
2023-03-28T06:23:14.258Z,0.50
2023-03-28T06:25:42.455Z,0.50
2023-03-28T06:28:10.027Z,0.50
2023-03-28T06:30:57.650Z,0.50
2023-03-28T06:33:24.844Z,0.50
2023-03-28T06:35:52.077Z,0.50
2023-03-28T06:38:19.333Z,0.90
2023-03-28T06:40:50.966Z,1.20
2023-03-28T06:43:18.673Z,1.50
2023-03-28T06:45:47.797Z,1.50
2023-03-28T06:48:16.109Z,1.50
2023-03-28T06:51:03.809Z,1.60
2023-03-28T06:53:31.444Z,1.70
2023-03-28T06:55:59.790Z,1.70
2023-03-28T06:58:29.608Z,2.00
2023-03-28T07:01:01.812Z,2.20
2023-03-28T07:03:32.703Z,2.30
2023-03-28T07:06:06.370Z,2.40
2023-03-28T07:08:34.459Z,2.70
2023-03-28T07:11:02.899Z,3.30
2023-03-28T07:13:30.742Z,2.90
2023-03-28T07:16:06.618Z,3.00
2023-03-28T07:18:35.152Z,3.10
2023-03-28T07:21:19.029Z,3.00
2023-03-28T07:23:46.267Z,4.60
2023-03-28T07:26:15.917Z,6.70
2023-03-28T07:28:43.574Z,8.20
2023-03-28T07:31:12.005Z,9.10
2023-03-28T07:33:39.533Z,10.10
2023-03-28T07:36:14.423Z,11.00
2023-03-28T07:38:43.619Z,11.70
2023-03-28T07:41:12.735Z,12.20
2023-03-28T07:43:40.218Z,12.70
2023-03-28T07:46:10.696Z,12.80
2023-03-28T07:48:40.618Z,13.30
2023-03-28T07:51:10.759Z,13.70
2023-03-28T07:53:38.952Z,13.80
2023-03-28T07:56:11.936Z,14.00
2023-03-28T07:59:04.455Z,14.40
2023-03-28T08:01:32.438Z,15.00
2023-03-28T08:04:04.250Z,15.40
2023-03-28T08:06:41.788Z,15.20
2023-03-28T08:09:11.850Z,15.30
2023-03-28T08:11:44.373Z,15.70
2023-03-28T08:14:14.971Z,16.20
2023-03-28T08:16:43.654Z,16.70
2023-03-28T08:19:12.232Z,17.10
2023-03-28T08:22:02.392Z,17.20
2023-03-28T08:24:35.786Z,17.90
2023-03-28T08:27:11.837Z,17.30
2023-03-28T08:29:40.095Z,16.00
2023-03-28T08:32:08.265Z,13.90
2023-03-28T08:34:36.467Z,14.10
2023-03-28T08:37:10.097Z,13.90
2023-03-28T08:39:37.605Z,15.70
2023-03-28T08:42:11.267Z,17.90
2023-03-28T08:44:52.048Z,19.10
2023-03-28T08:47:25.902Z,19.20
2023-03-28T08:50:02.736Z,16.30
2023-03-28T08:52:31.231Z,13.90
2023-03-28T08:55:06.957Z,12.10
2023-03-28T08:57:36.194Z,10.60
2023-03-28T09:00:22.256Z,9.30
2023-03-28T09:02:52.030Z,8.60
2023-03-28T09:05:44.446Z,8.60
2023-03-28T09:08:49.520Z,8.80
2023-03-28T09:11:21.778Z,9.10
2023-03-28T09:14:11.312Z,9.10
2023-03-28T09:17:17.946Z,9.10
2023-03-28T09:20:13.959Z,8.80
2023-03-28T09:23:22.285Z,9.10
2023-03-28T09:26:29.788Z,18.40
2023-03-28T09:29:11.362Z,18.30
2023-03-28T09:31:47.183Z,18.10
2023-03-28T09:34:30.332Z,15.80
2023-03-28T09:37:26.931Z,14.00
2023-03-28T09:39:57.700Z,12.40
2023-03-28T09:42:46.984Z,11.40
2023-03-28T09:46:00.145Z,10.40
2023-03-28T09:48:50.528Z,9.50
2023-03-28T09:51:21.002Z,8.70
2023-03-28T09:53:48.310Z,8.70
2023-03-28T09:56:21.315Z,9.00
2023-03-28T09:58:54.346Z,9.20
2023-03-28T10:01:46.823Z,9.30
2023-03-28T10:04:36.907Z,9.20
2023-03-28T10:07:31.702Z,9.00
2023-03-28T10:10:25.097Z,8.90
2023-03-28T10:13:04.864Z,8.90
2023-03-28T10:15:41.616Z,8.60
2023-03-28T10:18:42.439Z,7.90
2023-03-28T10:21:25.784Z,7.50
2023-03-28T10:24:06.432Z,6.80
2023-03-28T10:26:34.811Z,5.90
2023-03-28T10:29:07.519Z,5.60
2023-03-28T10:31:39.016Z,4.80
2023-03-28T10:34:26.992Z,4.90
2023-03-28T10:37:31.871Z,5.50
2023-03-28T10:40:20.499Z,6.00
2023-03-28T10:43:15.719Z,6.20
2023-03-28T10:45:55.529Z,6.30
2023-03-28T10:48:34.287Z,6.20
2023-03-28T10:51:08.617Z,6.10
2023-03-28T10:54:12.399Z,6.10
2023-03-28T10:56:58.820Z,6.20
2023-03-28T10:59:55.846Z,6.10
2023-03-28T11:02:46.222Z,5.80
2023-03-28T11:05:37.695Z,5.60
2023-03-28T11:08:40.290Z,5.60
2023-03-28T11:11:47.049Z,5.60
2023-03-28T11:14:33.757Z,5.90
2023-03-28T11:17:23.835Z,6.30
2023-03-28T11:20:21.921Z,6.90
2023-03-28T11:23:37.918Z,7.60
2023-03-28T11:26:31.449Z,9.00
2023-03-28T11:29:43.810Z,10.00
2023-03-28T11:32:21.633Z,9.90
2023-03-28T11:35:36.166Z,9.60
2023-03-28T11:38:22.087Z,9.40
2023-03-28T11:40:59.638Z,9.60
2023-03-28T11:44:09.489Z,9.90
2023-03-28T11:46:43.119Z,10.20
2023-03-28T11:49:22.788Z,10.20
2023-03-28T11:52:20.217Z,10.80
2023-03-28T11:54:53.352Z,11.90
2023-03-28T11:57:29.748Z,12.80
2023-03-28T12:00:33.677Z,13.20
2023-03-28T12:03:23.700Z,13.20
2023-03-28T12:06:05.303Z,13.30
2023-03-28T12:08:45.317Z,13.50
2023-03-28T12:11:23.860Z,13.50
2023-03-28T12:14:12.545Z,13.80
2023-03-28T12:16:48.955Z,13.30
2023-03-28T12:19:33.785Z,12.20
2023-03-28T12:22:26.621Z,11.10
2023-03-28T12:25:06.645Z,10.30
2023-03-28T12:28:10.126Z,9.90
2023-03-28T12:30:45.526Z,9.60
2023-03-28T12:33:24.035Z,9.50
2023-03-28T12:36:34.043Z,9.20
2023-03-28T12:39:17.544Z,8.70
2023-03-28T12:41:47.769Z,8.50
2023-03-28T12:44:24.333Z,8.40
2023-03-28T12:46:59.144Z,8.50
2023-03-28T12:49:43.793Z,9.20
2023-03-28T12:52:22.181Z,9.70
2023-03-28T12:54:57.678Z,10.50
2023-03-28T12:57:45.801Z,10.90
2023-03-28T13:00:28.808Z,11.10
2023-03-28T13:03:34.856Z,11.00
2023-03-28T13:06:39.207Z,11.30
2023-03-28T13:09:23.819Z,11.70
2023-03-28T13:12:01.941Z,13.00
2023-03-28T13:14:32.969Z,14.20
2023-03-28T13:17:03.478Z,19.00
2023-03-28T13:19:46.284Z,23.00
2023-03-28T13:22:42.903Z,24.00
2023-03-28T13:25:21.066Z,21.00
2023-03-28T13:27:50.720Z,21.80
2023-03-28T13:30:44.827Z,21.80
2023-03-28T13:33:26.976Z,20.70
2023-03-28T13:35:57.878Z,20.30
2023-03-28T13:38:28.157Z,18.40
2023-03-28T13:43:46.666Z,15.40
2023-03-28T13:46:13.930Z,15.00
2023-03-28T13:49:05.133Z,15.00
2023-03-28T13:52:14.808Z,15.30
2023-03-28T13:54:42.491Z,15.90
2023-03-28T13:57:17.429Z,16.20
2023-03-28T13:59:59.853Z,18.00
2023-03-28T14:02:41.655Z,19.10
2023-03-28T14:05:23.902Z,21.20
2023-03-28T14:07:52.730Z,20.90
2023-03-28T14:10:30.793Z,18.80
2023-03-28T14:13:02.786Z,17.00
2023-03-28T14:15:37.187Z,15.80
2023-03-28T14:18:04.706Z,15.70
2023-03-28T14:20:33.534Z,17.60
2023-03-28T14:23:01.711Z,18.10
2023-03-28T14:25:29.449Z,18.70
2023-03-28T14:27:57.360Z,19.10
2023-03-28T14:30:37.617Z,18.70
2023-03-28T14:33:13.538Z,16.60
2023-03-28T14:35:42.863Z,15.90
2023-03-28T14:38:15.801Z,15.80
2023-03-28T14:40:45.022Z,16.40
2023-03-28T14:43:13.585Z,15.70
2023-03-28T14:45:44.394Z,14.90
2023-03-28T14:48:19.132Z,14.50
2023-03-28T14:50:48.500Z,14.00
2023-03-28T14:53:20.182Z,13.40
2023-03-28T14:55:49.685Z,13.30
2023-03-28T14:58:22.339Z,13.90
2023-03-28T15:00:58.609Z,13.80
2023-03-28T15:03:38.955Z,13.40
2023-03-28T15:06:08.158Z,13.10
2023-03-28T15:08:39.545Z,13.60
2023-03-28T15:11:17.618Z,14.50
2023-03-28T15:14:01.160Z,15.10
2023-03-28T15:16:29.881Z,15.20
2023-03-28T15:19:06.908Z,14.90
2023-03-28T15:21:41.140Z,13.70
2023-03-28T15:24:14.799Z,13.10
2023-03-28T15:26:43.985Z,12.60
2023-03-28T15:29:17.236Z,12.90
2023-03-28T15:31:45.020Z,12.70
2023-03-28T15:34:20.290Z,12.30
2023-03-28T15:36:56.622Z,12.30
2023-03-28T15:39:26.294Z,11.60
2023-03-28T15:42:27.819Z,11.10
2023-03-28T15:44:57.909Z,10.80
2023-03-28T15:47:29.700Z,10.40
2023-03-28T15:50:12.771Z,10.50
2023-03-28T15:52:42.403Z,10.30
2023-03-28T15:55:20.601Z,10.10
2023-03-28T15:57:48.599Z,10.00
2023-03-28T16:00:46.840Z,10.00
2023-03-28T16:03:18.496Z,10.00
2023-03-28T16:06:09.768Z,10.00
2023-03-28T16:08:41.416Z,10.00
2023-03-28T16:11:18.467Z,9.80
2023-03-28T16:14:04.647Z,9.60
2023-03-28T16:16:56.309Z,9.40
2023-03-28T16:19:34.871Z,9.30
2023-03-28T16:22:03.729Z,9.30
2023-03-28T16:24:31.247Z,9.20
2023-03-28T16:27:00.724Z,9.00
2023-03-28T16:29:28.068Z,8.80
2023-03-28T16:31:55.386Z,8.70
2023-03-28T16:34:22.880Z,8.60
2023-03-28T16:36:50.050Z,8.50
2023-03-28T16:39:17.999Z,8.30
2023-03-28T16:41:45.411Z,8.20
2023-03-28T16:44:12.547Z,8.20
2023-03-28T16:46:40.310Z,8.20
2023-03-28T16:49:08.123Z,8.10
2023-03-28T16:51:35.347Z,8.10
2023-03-28T16:54:02.547Z,8.00
2023-03-28T16:56:30.441Z,7.90
2023-03-28T16:58:57.685Z,7.80
2023-03-28T17:01:25.153Z,7.60
2023-03-28T17:03:53.483Z,7.50
2023-03-28T17:06:21.882Z,7.40
2023-03-28T17:08:51.118Z,7.20
2023-03-28T17:11:20.467Z,7.10
2023-03-28T17:13:52.443Z,7.00
2023-03-28T17:16:20.348Z,6.90
2023-03-28T17:18:47.796Z,6.80
2023-03-28T17:21:17.047Z,6.70
2023-03-28T17:23:47.076Z,6.50
2023-03-28T17:26:15.285Z,6.40
2023-03-28T17:28:43.417Z,6.20
2023-03-28T17:31:17.433Z,6.00
2023-03-28T17:33:46.871Z,5.80
2023-03-28T17:36:22.418Z,5.70
2023-03-28T17:38:51.233Z,5.60
2023-03-28T17:41:21.436Z,5.50
2023-03-28T17:43:49.576Z,5.30
2023-03-28T17:46:17.008Z,5.30
2023-03-28T17:48:45.055Z,5.20
2023-03-28T17:51:12.632Z,5.20
2023-03-28T17:53:42.588Z,5.20
2023-03-28T17:56:11.016Z,5.10
2023-03-28T17:58:38.774Z,5.20
2023-03-28T18:01:11.447Z,5.10
2023-03-28T18:03:40.576Z,5.10
2023-03-28T18:06:27.192Z,5.00
2023-03-28T18:08:54.585Z,4.90
2023-03-28T18:11:22.910Z,5.00
2023-03-28T18:13:53.468Z,5.00
2023-03-28T18:16:20.911Z,4.90
2023-03-28T18:18:48.747Z,4.90
2023-03-28T18:21:16.395Z,4.90
2023-03-28T18:23:43.898Z,4.90
2023-03-28T18:26:12.181Z,4.80
2023-03-28T18:28:40.839Z,4.80
2023-03-28T18:31:09.982Z,4.80
2023-03-28T18:33:38.221Z,4.80
2023-03-28T18:36:06.846Z,4.70
2023-03-28T18:38:36.905Z,4.70
2023-03-28T18:41:06.640Z,4.70
2023-03-28T18:43:38.102Z,4.70
2023-03-28T18:46:07.623Z,4.60
2023-03-28T18:48:35.997Z,4.60
2023-03-28T18:51:06.128Z,4.60
2023-03-28T18:53:34.776Z,4.50
2023-03-28T18:56:03.372Z,4.50
2023-03-28T18:58:31.299Z,4.50
2023-03-28T19:01:03.392Z,4.50
2023-03-28T19:03:38.432Z,4.40
2023-03-28T19:06:08.034Z,4.40
2023-03-28T19:08:35.876Z,4.40
2023-03-28T19:11:09.453Z,4.40
2023-03-28T19:13:37.113Z,4.40
2023-03-28T19:16:10.463Z,4.40
2023-03-28T19:18:39.456Z,4.40
2023-03-28T19:21:07.370Z,4.40
2023-03-28T19:23:36.759Z,4.40
2023-03-28T19:26:07.167Z,4.40
2023-03-28T19:28:35.707Z,4.40
2023-03-28T19:31:05.839Z,4.40
2023-03-28T19:33:33.756Z,4.40
2023-03-28T19:36:01.703Z,4.50
2023-03-28T19:38:33.392Z,4.50
2023-03-28T19:41:03.787Z,4.50
2023-03-28T19:43:31.379Z,4.50
2023-03-28T19:46:07.427Z,4.50
2023-03-28T19:48:34.973Z,4.50
2023-03-28T19:51:03.168Z,4.50
2023-03-28T19:53:30.547Z,4.50
2023-03-28T19:55:59.805Z,4.50
2023-03-28T19:58:28.176Z,4.60
2023-03-28T20:00:57.180Z,4.60
2023-03-28T20:03:24.826Z,4.60
2023-03-28T20:05:52.449Z,4.60
2023-03-28T20:08:21.316Z,4.60
2023-03-28T20:10:51.079Z,4.60
2023-03-28T20:13:18.909Z,4.50
2023-03-28T20:15:46.797Z,4.50
2023-03-28T20:18:19.730Z,4.50
2023-03-28T20:20:53.530Z,4.50
2023-03-28T20:23:23.505Z,4.60
2023-03-28T20:25:52.600Z,4.50
2023-03-28T20:28:29.451Z,4.60
2023-03-28T20:30:56.786Z,4.60
2023-03-28T20:33:24.776Z,4.50
2023-03-28T20:35:53.838Z,4.50
2023-03-28T20:38:22.069Z,4.50
2023-03-28T20:40:49.474Z,4.50
2023-03-28T20:43:20.525Z,4.40
2023-03-28T20:45:53.896Z,4.50
2023-03-28T20:48:34.569Z,4.50
2023-03-28T20:51:13.845Z,4.50
2023-03-28T20:53:43.849Z,4.40
2023-03-28T20:56:12.032Z,4.50
2023-03-28T20:58:40.559Z,4.50
2023-03-28T21:01:09.611Z,4.50
2023-03-28T21:03:46.772Z,4.50
2023-03-28T21:06:16.884Z,4.50
2023-03-28T21:08:46.004Z,4.50
2023-03-28T21:11:21.076Z,4.50
2023-03-28T21:13:49.346Z,4.50
2023-03-28T21:16:17.506Z,4.50
2023-03-28T21:18:45.852Z,4.50
2023-03-28T21:21:14.603Z,4.50
2023-03-28T21:23:43.041Z,4.50
2023-03-28T21:26:13.959Z,4.40
2023-03-28T21:28:41.398Z,4.50
2023-03-28T21:31:12.149Z,4.50
2023-03-28T21:33:41.332Z,4.50
2023-03-28T21:36:11.833Z,4.50
2023-03-28T21:38:39.508Z,4.40
2023-03-28T21:41:08.578Z,4.40
2023-03-28T21:43:36.291Z,4.40
2023-03-28T21:46:04.107Z,4.40
2023-03-28T21:48:31.715Z,4.50
2023-03-28T21:51:00.578Z,4.60
2023-03-28T21:53:36.620Z,4.60
2023-03-28T21:56:06.493Z,4.70
2023-03-28T21:58:34.572Z,4.70
2023-03-28T22:01:02.839Z,4.70
2023-03-28T22:03:30.852Z,4.80
2023-03-28T22:05:58.389Z,4.90
2023-03-28T22:08:26.087Z,4.90
2023-03-28T22:10:57.339Z,4.90
2023-03-28T22:13:28.847Z,4.90
2023-03-28T22:15:59.461Z,4.90
2023-03-28T22:18:27.755Z,4.90
2023-03-28T22:20:55.429Z,4.80
2023-03-28T22:23:23.820Z,4.70
2023-03-28T22:25:52.440Z,4.70
2023-03-28T22:28:23.964Z,4.60
2023-03-28T22:30:54.104Z,4.50
2023-03-28T22:33:23.093Z,4.40
2023-03-28T22:35:50.427Z,4.40
2023-03-28T22:38:19.141Z,4.30
2023-03-28T22:40:47.225Z,4.30
2023-03-28T22:43:15.927Z,4.20
2023-03-28T22:45:43.297Z,4.20
2023-03-28T22:48:14.618Z,4.20
2023-03-28T22:50:47.032Z,4.10
2023-03-28T22:53:15.059Z,4.10
2023-03-28T22:55:44.458Z,4.10
2023-03-28T22:58:12.781Z,4.10
2023-03-28T23:00:40.280Z,4.20
2023-03-28T23:03:08.267Z,4.20
2023-03-28T23:05:37.326Z,4.30
2023-03-28T23:08:05.362Z,4.30
2023-03-28T23:10:33.260Z,4.30
2023-03-28T23:13:00.535Z,4.40
2023-03-28T23:15:28.230Z,4.50
2023-03-28T23:17:56.425Z,4.60
2023-03-28T23:20:24.543Z,4.60
2023-03-28T23:22:53.429Z,4.60
2023-03-28T23:25:21.986Z,4.60
2023-03-28T23:27:49.181Z,4.60
2023-03-28T23:30:16.616Z,4.70
2023-03-28T23:32:44.268Z,4.70
2023-03-28T23:35:12.327Z,4.70
2023-03-28T23:37:40.020Z,4.80
2023-03-28T23:40:12.423Z,4.80
2023-03-28T23:42:42.652Z,4.80
2023-03-28T23:45:10.873Z,4.80
2023-03-28T23:47:38.416Z,4.80
2023-03-28T23:50:06.621Z,4.60
2023-03-28T23:52:34.037Z,4.50
2023-03-28T23:55:01.423Z,4.50
2023-03-28T23:57:29.172Z,4.40
2023-03-28T23:59:56.908Z,4.30
